Time;durP1;ratioP1;P1;durP2;ratioP2;P2;SDS_P1;SDS_P2;PMS_P1;PMS_P2;Temp;Humidity;BMP_temperature;BMP_pressure;BME280_temperature;BME280_humidity;BME280_pressure;Samples;Min_cycle;Max_cycle;Signal;HPM_P1;HPM_P2
2024/02/03 00:01:34;;;;;;;3.08;1.83;;;;;;;11.13;100.00;101740.66;4996308;28;20053;-62
2024/02/03 00:04:02;;;;;;;2.05;1.75;;;;;;;11.13;100.00;101737.88;4998560;28;20053;-62
2024/02/03 00:06:29;;;;;;;4.43;1.73;;;;;;;11.13;100.00;101734.28;4994910;28;20042;-63
2024/02/03 00:08:57;;;;;;;1.85;1.75;;;;;;;11.12;100.00;101733.47;4993705;28;20527;-62
2024/02/03 00:11:24;;;;;;;2.38;2.08;;;;;;;11.12;100.00;101729.91;4992126;28;20062;-62
2024/02/03 00:13:53;;;;;;;2.13;1.92;;;;;;;11.13;100.00;101735.13;4995840;28;20488;-62
2024/02/03 00:16:21;;;;;;;1.73;1.63;;;;;;;11.12;100.00;101733.47;4995772;28;20062;-62
2024/02/03 00:18:49;;;;;;;2.67;1.77;;;;;;;11.14;100.00;101730.41;4996701;28;20715;-62
2024/02/03 00:21:16;;;;;;;2.05;1.40;;;;;;;11.13;100.00;101726.81;4995591;28;20713;-62
2024/02/03 00:23:45;;;;;;;2.22;2.08;;;;;;;11.14;100.00;101722.91;4996265;28;20081;-62
2024/02/03 00:26:12;;;;;;;2.95;1.80;;;;;;;11.12;100.00;101711.31;4997586;28;20054;-62
2024/02/03 00:28:40;;;;;;;1.75;1.58;;;;;;;11.13;100.00;101707.41;4999042;28;20126;-62
2024/02/03 00:31:09;;;;;;;3.47;1.67;;;;;;;11.13;100.00;101709.34;4994982;28;20054;-62
2024/02/03 00:33:36;;;;;;;4.30;1.52;;;;;;;11.12;100.00;101708.53;4997477;28;20042;-63
2024/02/03 00:36:04;;;;;;;3.55;2.45;;;;;;;11.12;100.00;101716.84;4996211;28;20038;-63
2024/02/03 00:38:31;;;;;;;1.92;1.60;;;;;;;11.11;100.00;101717.19;4998960;28;20053;-63
2024/02/03 00:40:59;;;;;;;2.20;1.20;;;;;;;11.11;100.00;101709.69;4998760;28;20057;-62
2024/02/03 00:43:26;;;;;;;1.75;1.65;;;;;;;11.12;100.00;101700.22;4998549;28;20046;-62
2024/02/03 00:45:53;;;;;;;2.50;1.17;;;;;;;11.11;100.00;101706.09;5004894;28;20045;-62
2024/02/03 00:48:21;;;;;;;1.85;1.27;;;;;;;11.10;100.00;101702.50;4999671;28;20057;-62
2024/02/03 00:50:48;;;;;;;1.50;1.40;;;;;;;11.10;100.00;101708.06;5001937;28;20057;-62
2024/02/03 00:53:16;;;;;;;5.10;1.30;;;;;;;11.11;100.00;101706.91;5002091;28;20400;-62
2024/02/03 00:55:43;;;;;;;1.27;1.20;;;;;;;11.11;100.00;101695.84;4998929;28;20057;-62
2024/02/03 00:58:10;;;;;;;2.95;1.50;;;;;;;11.11;100.00;101711.66;5000899;28;20046;-62
2024/02/03 01:00:38;;;;;;;1.38;1.27;;;;;;;11.10;100.00;101705.28;4999858;28;20045;-63
2024/02/03 01:03:05;;;;;;;3.33;1.30;;;;;;;11.09;100.00;101700.91;4998843;28;20578;-61
2024/02/03 01:05:33;;;;;;;4.53;1.48;;;;;;;11.10;100.00;101698.91;4997859;28;20492;-63
2024/02/03 01:08:00;;;;;;;1.45;1.35;;;;;;;11.08;100.00;101693.72;4999993;28;20046;-62
2024/02/03 01:10:27;;;;;;;1.90;1.40;;;;;;;11.07;100.00;101697.59;4982002;28;20042;-62
2024/02/03 01:12:55;;;;;;;1.77;0.98;;;;;;;11.08;100.00;101698.44;4993759;28;20038;-61
2024/02/03 01:15:22;;;;;;;1.77;1.15;;;;;;;11.08;100.00;101703.97;5000827;28;20105;-62
2024/02/03 01:17:50;;;;;;;2.17;0.90;;;;;;;11.07;100.00;101692.06;4997682;28;20504;-62
2024/02/03 01:20:18;;;;;;;1.25;1.02;;;;;;;11.06;100.00;101696.00;5003176;28;20081;-62
2024/02/03 01:22:45;;;;;;;1.65;0.85;;;;;;;11.06;100.00;101696.00;5007015;28;20042;-61
2024/02/03 01:25:13;;;;;;;1.48;1.10;;;;;;;11.07;100.00;101697.59;4996823;28;20054;-62
2024/02/03 01:27:40;;;;;;;1.17;0.88;;;;;;;11.07;100.00;101702.38;4998982;28;20057;-62
2024/02/03 01:30:09;;;;;;;1.00;0.90;;;;;;;11.06;100.00;101690.47;4997838;28;20042;-62
2024/02/03 01:32:36;;;;;;;3.20;1.08;;;;;;;11.06;100.00;101700.72;4998010;28;20050;-62
2024/02/03 01:35:04;;;;;;;1.58;0.82;;;;;;;11.07;100.00;101697.59;5000103;28;20057;-63
2024/02/03 01:37:32;;;;;;;1.73;1.33;;;;;;;11.07;100.00;101696.81;4999016;28;20069;-62
2024/02/03 01:39:59;;;;;;;1.52;0.80;;;;;;;11.07;100.00;101699.59;5003033;28;20526;-63
2024/02/03 01:42:26;;;;;;;0.57;0.57;;;;;;;11.07;100.00;101697.59;5002766;28;20060;-64
2024/02/03 01:44:54;;;;;;;3.72;0.80;;;;;;;11.06;100.00;101701.53;5000432;28;20069;-62
2024/02/03 01:47:21;;;;;;;1.05;0.70;;;;;;;11.06;100.00;101698.78;4999791;28;20042;-62
2024/02/03 01:49:51;;;;;;;1.23;0.63;;;;;;;11.04;100.00;101686.38;4996811;28;20041;-61
2024/02/03 01:52:19;;;;;;;1.52;0.70;;;;;;;11.04;100.00;101689.94;5002268;28;20057;-62
2024/02/03 01:54:47;;;;;;;2.30;0.90;;;;;;;11.03;100.00;101685.56;5000357;28;20046;-62
2024/02/03 01:57:15;;;;;;;3.55;1.30;;;;;;;11.03;100.00;101691.09;4998020;28;20037;-62
2024/02/03 01:59:43;;;;;;;0.80;0.80;;;;;;;11.03;100.00;101685.56;5000925;28;20061;-62
2024/02/03 02:02:11;;;;;;;1.05;0.80;;;;;;;11.02;100.00;101678.38;4999358;28;20058;-62
2024/02/03 02:04:38;;;;;;;1.20;0.95;;;;;;;11.02;100.00;101672.84;5001077;28;20042;-62
2024/02/03 02:07:06;;;;;;;0.85;0.85;;;;;;;11.00;100.00;101672.34;5004428;28;20499;-62
2024/02/03 02:09:33;;;;;;;0.93;0.93;;;;;;;11.00;100.00;101681.50;4999186;28;20054;-64
2024/02/03 02:12:01;;;;;;;2.03;1.27;;;;;;;11.00;100.00;101675.13;5000645;28;20244;-63
2024/02/03 02:14:28;;;;;;;1.60;0.93;;;;;;;10.99;100.00;101662.41;4999405;28;20574;-63
2024/02/03 02:16:57;;;;;;;1.10;1.02;;;;;;;10.98;100.00;101671.88;4993600;28;20053;-62
2024/02/03 02:19:24;;;;;;;0.90;0.90;;;;;;;10.97;100.00;101673.81;4998954;28;20046;-62
2024/02/03 02:21:52;;;;;;;0.65;0.65;;;;;;;10.97;100.00;101675.78;5000511;28;20045;-62
2024/02/03 02:24:19;;;;;;;0.82;0.82;;;;;;;10.97;100.00;101684.91;4996982;28;20046;-62
2024/02/03 02:26:48;;;;;;;3.45;1.25;;;;;;;10.98;100.00;101682.97;4998836;28;20045;-62
2024/02/03 02:29:15;;;;;;;2.28;0.88;;;;;;;10.98;100.00;101671.88;4996137;28;20053;-62
2024/02/03 02:31:42;;;;;;;3.67;0.90;;;;;;;10.98;100.00;101671.88;4998283;28;20042;-62
2024/02/03 02:34:11;;;;;;;0.70;0.70;;;;;;;10.98;100.00;101682.97;4998327;28;20035;-62
2024/02/03 02:36:38;;;;;;;0.82;0.73;;;;;;;10.97;100.00;101675.78;4998411;28;20049;-61
2024/02/03 02:39:06;;;;;;;0.90;0.70;;;;;;;10.96;100.00;101680.50;4980197;28;20065;-62
2024/02/03 02:41:34;;;;;;;0.80;0.73;;;;;;;10.96;100.00;101674.16;4997532;28;20073;-62
2024/02/03 02:44:01;;;;;;;3.00;0.70;;;;;;;10.96;100.00;101674.16;4995649;28;20037;-63
2024/02/03 02:46:28;;;;;;;2.25;0.70;;;;;;;10.95;100.00;101669.75;4996962;28;20589;-62
2024/02/03 02:48:56;;;;;;;0.70;0.50;;;;;;;10.94;100.00;101676.41;4995232;28;20060;-62
2024/02/03 02:51:23;;;;;;;1.05;1.05;;;;;;;10.94;100.00;101668.09;4991974;28;20042;-62
2024/02/03 02:53:51;;;;;;;0.50;0.50;;;;;;;10.92;100.00;101665.66;4997410;28;20404;-62
2024/02/03 02:56:19;;;;;;;0.47;0.47;;;;;;;10.93;100.00;101669.25;4999297;28;20050;-62
2024/02/03 02:58:46;;;;;;;0.50;0.30;;;;;;;10.90;100.00;101675.44;4998674;28;20058;-62
2024/02/03 03:01:13;;;;;;;0.55;0.38;;;;;;;10.88;100.00;101672.19;5014879;23;20499;-63
2024/02/03 03:03:41;;;;;;;0.57;0.30;;;;;;;10.90;100.00;101684.59;4986635;28;20057;-64
2024/02/03 03:06:08;;;;;;;0.80;0.30;;;;;;;10.90;100.00;101670.72;4987177;28;20051;-63
2024/02/03 03:08:36;;;;;;;1.65;0.30;;;;;;;10.91;100.00;101688.16;4985382;28;20385;-63
2024/02/03 03:11:03;;;;;;;1.08;0.63;;;;;;;10.90;100.00;101681.00;4981684;28;20050;-63
2024/02/03 03:13:30;;;;;;;0.20;0.20;;;;;;;10.91;100.00;101680.66;4987287;28;20531;-63
2024/02/03 03:15:58;;;;;;;0.35;0.35;;;;;;;10.88;100.00;101688.81;4987330;28;20050;-63
2024/02/03 03:18:25;;;;;;;1.48;0.28;;;;;;;10.87;100.00;101681.63;4987091;28;20054;-63
2024/02/03 03:20:53;;;;;;;1.10;0.20;;;;;;;10.86;100.00;101680.00;4987117;28;20054;-63
2024/02/03 03:23:20;;;;;;;0.25;0.25;;;;;;;10.87;100.00;101685.22;4986764;28;20058;-64
2024/02/03 03:25:47;;;;;;;0.20;0.20;;;;;;;10.86;100.00;101677.22;4987606;28;20050;-63
2024/02/03 03:28:15;;;;;;;0.73;0.20;;;;;;;10.85;100.00;101667.31;4987002;28;20058;-66
2024/02/03 03:30:42;;;;;;;0.35;0.25;;;;;;;10.84;100.00;101669.25;4987065;28;20392;-68
2024/02/03 03:33:10;;;;;;;0.47;0.47;;;;;;;10.82;100.00;101662.41;4987176;28;20077;-66
2024/02/03 03:35:37;;;;;;;1.08;0.77;;;;;;;10.80;100.00;101651.63;4987246;28;20049;-65
2024/02/03 03:38:06;;;;;;;0.82;0.40;;;;;;;10.80;100.00;101659.94;4986466;28;20416;-66
2024/02/03 03:40:34;;;;;;;0.85;0.50;;;;;;;10.77;100.00;101649.53;4985217;28;20618;-66
2024/02/03 03:43:04;;;;;;;0.40;0.40;;;;;;;10.76;100.00;101663.69;4986606;28;20763;-65
2024/02/03 03:45:34;;;;;;;1.15;0.30;;;;;;;10.75;100.00;101656.53;4986739;28;20046;-63
2024/02/03 03:48:01;;;;;;;0.90;0.30;;;;;;;10.73;100.00;101644.94;4986807;28;20140;-65
2024/02/03 03:50:29;;;;;;;1.65;0.47;;;;;;;10.69;100.00;101647.56;4987503;28;20053;-63
2024/02/03 03:52:56;;;;;;;1.92;0.40;;;;;;;10.68;100.00;101639.56;4986635;28;20377;-63
2024/02/03 03:55:23;;;;;;;0.75;0.63;;;;;;;10.67;100.00;101644.28;4986393;28;20073;-63
2024/02/03 03:57:51;;;;;;;0.45;0.40;;;;;;;10.62;100.00;101641.69;4987016;28;20043;-63
2024/02/03 04:00:19;;;;;;;0.40;0.40;;;;;;;10.58;100.00;101634.34;4969853;28;20057;-63
2024/02/03 04:02:46;;;;;;;0.95;0.20;;;;;;;10.54;100.00;101633.38;4986156;28;20829;-63
2024/02/03 04:05:13;;;;;;;0.40;0.30;;;;;;;10.51;100.00;101639.56;4987146;28;20065;-63
2024/02/03 04:07:41;;;;;;;0.85;0.28;;;;;;;10.50;100.00;101621.31;4986438;28;20654;-63
2024/02/03 04:10:08;;;;;;;0.57;0.30;;;;;;;10.45;100.00;101619.50;4982718;28;20670;-63
2024/02/03 04:12:36;;;;;;;1.15;0.10;;;;;;;10.42;100.00;101628.47;4983609;28;20054;-64
2024/02/03 04:15:04;;;;;;;0.20;0.20;;;;;;;10.38;100.00;101630.22;4988420;28;20052;-65
2024/02/03 04:17:31;;;;;;;0.20;0.20;;;;;;;10.35;100.00;101634.47;4990986;28;20057;-64
2024/02/03 04:19:58;;;;;;;0.10;0.10;;;;;;;10.35;100.00;101626.16;4990782;28;20054;-64
2024/02/03 04:22:26;;;;;;;0.30;0.30;;;;;;;10.38;100.00;101631.06;4990226;28;20081;-65
2024/02/03 04:24:54;;;;;;;0.10;0.10;;;;;;;10.40;100.00;101628.78;4990579;28;20050;-64
2024/02/03 04:27:21;;;;;;;0.10;0.10;;;;;;;10.38;100.00;101631.06;4990472;28;20287;-63
2024/02/03 04:29:48;;;;;;;0.55;0.10;;;;;;;10.37;100.00;101623.09;4990065;28;20050;-63
2024/02/03 04:32:16;;;;;;;0.10;0.08;;;;;;;10.35;100.00;101642.75;4990313;28;20065;-64
2024/02/03 04:34:43;;;;;;;0.40;0.10;;;;;;;10.36;100.00;101643.59;4990153;28;20546;-63
2024/02/03 04:37:11;;;;;;;0.08;0.00;;;;;;;10.34;100.00;101638.38;4987498;28;20050;-63
2024/02/03 04:39:38;;;;;;;0.05;0.00;;;;;;;10.32;100.00;101642.63;4990412;28;20050;-63
2024/02/03 04:42:06;;;;;;;0.10;0.10;;;;;;;10.31;100.00;101647.31;4977164;28;20069;-63
2024/02/03 04:44:33;;;;;;;0.05;0.00;;;;;;;10.31;100.00;101658.41;4989607;28;20058;-63
2024/02/03 04:47:00;;;;;;;0.73;0.10;;;;;;;10.28;100.00;101659.03;4983210;28;20054;-63
2024/02/03 04:49:28;;;;;;;0.17;0.10;;;;;;;10.26;100.00;101661.31;4989276;28;20523;-63
2024/02/03 04:51:55;;;;;;;0.03;0.00;;;;;;;10.23;100.00;101661.94;4973471;28;20054;-63
2024/02/03 04:54:23;;;;;;;0.10;0.10;;;;;;;10.22;100.00;101674.16;4989876;28;20622;-63
2024/02/03 04:56:50;;;;;;;0.30;0.20;;;;;;;10.20;100.00;101664.53;4990045;28;20062;-63
2024/02/03 04:59:17;;;;;;;0.45;0.10;;;;;;;10.21;100.00;101663.41;4989766;28;20674;-63
2024/02/03 05:01:45;;;;;;;0.30;0.20;;;;;;;10.21;100.00;101664.22;4989873;28;20062;-63
2024/02/03 05:04:12;;;;;;;0.10;0.10;;;;;;;10.19;100.00;101668.44;4989572;28;20722;-63
2024/02/03 05:06:39;;;;;;;0.50;0.20;;;;;;;10.17;100.00;101667.94;4988502;28;20050;-63
2024/02/03 05:09:08;;;;;;;0.20;0.13;;;;;;;10.15;100.00;101665.50;4985329;28;20523;-63
2024/02/03 05:11:36;;;;;;;0.50;0.20;;;;;;;10.13;100.00;101661.44;4982082;28;20043;-64
2024/02/03 05:14:03;;;;;;;0.57;0.57;;;;;;;10.09;100.00;101661.22;4973276;28;20459;-64
2024/02/03 05:16:30;;;;;;;0.52;0.22;;;;;;;10.09;100.00;101666.75;4989354;28;20058;-64
2024/02/03 05:18:58;;;;;;;0.20;0.20;;;;;;;10.07;100.00;101682.84;4988951;28;20043;-64
2024/02/03 05:21:26;;;;;;;0.20;0.20;;;;;;;10.04;100.00;101669.66;4972138;28;20042;-64
2024/02/03 05:23:53;;;;;;;0.90;0.38;;;;;;;10.03;100.00;101665.28;4984618;28;20051;-65
2024/02/03 05:26:20;;;;;;;0.20;0.20;;;;;;;10.02;100.00;101676.63;4987638;28;20516;-63
2024/02/03 05:28:48;;;;;;;0.10;0.10;;;;;;;10.00;100.00;101668.66;4988868;28;20422;-64
2024/02/03 05:31:24;;;;;;;0.30;0.20;;;;;;;9.97;100.00;101668.47;4989116;28;20043;-64
2024/02/03 05:33:51;;;;;;;0.28;0.20;;;;;;;9.94;100.00;101677.41;4975787;28;20046;-64
2024/02/03 05:36:19;;;;;;;0.10;0.10;;;;;;;9.92;100.00;101694.34;4988899;28;20073;-64
2024/02/03 05:38:46;;;;;;;0.45;0.30;;;;;;;9.93;100.00;101695.97;4988895;28;20043;-64
2024/02/03 05:41:13;;;;;;;0.20;0.20;;;;;;;9.97;100.00;101705.28;4978869;28;20054;-65
2024/02/03 05:43:40;;;;;;;0.20;0.20;;;;;;;10.00;100.00;101707.41;4985522;28;20139;-64
2024/02/03 05:46:08;;;;;;;1.02;0.30;;;;;;;10.04;100.00;101715.88;4982517;28;20051;-65
2024/02/03 05:48:35;;;;;;;0.47;0.22;;;;;;;10.06;100.00;101719.94;4989132;28;20050;-64
2024/02/03 05:51:03;;;;;;;0.75;0.52;;;;;;;10.10;100.00;101729.25;4989455;28;20057;-65
2024/02/03 05:53:35;;;;;;;1.17;0.70;;;;;;;10.11;100.00;101725.34;4989200;28;20054;-65
2024/02/03 05:56:03;;;;;;;1.60;0.43;;;;;;;10.14;100.00;101733.03;4988449;28;20056;-64
2024/02/03 05:58:30;;;;;;;0.45;0.30;;;;;;;10.17;100.00;101740.72;4988502;28;20058;-64
2024/02/03 06:00:58;;;;;;;0.30;0.30;;;;;;;10.18;100.00;101731.28;4988229;28;20516;-65
2024/02/03 06:03:25;;;;;;;0.43;0.43;;;;;;;10.20;100.00;101737.31;4971443;28;20050;-65
2024/02/03 06:05:53;;;;;;;0.55;0.40;;;;;;;10.22;100.00;101742.50;4987462;28;20563;-65
2024/02/03 06:08:41;;;;;;;2.63;0.60;;;;;;;10.21;100.00;101747.25;4986244;28;20112;-65
2024/02/03 06:11:09;;;;;;;0.50;0.50;;;;;;;10.22;100.00;101737.78;4971389;28;20515;-65
2024/02/03 06:13:36;;;;;;;0.45;0.43;;;;;;;10.23;100.00;101750.50;4989360;28;20059;-65
2024/02/03 06:16:04;;;;;;;0.93;0.30;;;;;;;10.24;100.00;101754.91;4984593;28;20050;-67
2024/02/03 06:18:31;;;;;;;0.47;0.40;;;;;;;10.21;100.00;101741.72;4978174;28;20050;-65
2024/02/03 06:20:59;;;;;;;0.30;0.30;;;;;;;10.21;100.00;101741.72;4988569;28;20377;-65
2024/02/03 06:23:26;;;;;;;1.17;0.40;;;;;;;10.22;100.00;101745.28;4988699;28;20054;-65
2024/02/03 06:25:53;;;;;;;0.20;0.20;;;;;;;10.23;100.00;101741.38;4980865;28;20046;-66
2024/02/03 06:28:21;;;;;;;0.20;0.20;;;;;;;10.22;100.00;101746.09;4984343;28;20496;-65
2024/02/03 06:30:48;;;;;;;0.82;0.10;;;;;;;10.22;100.00;101745.28;4988486;28;20061;-65
2024/02/03 06:33:16;;;;;;;0.85;0.20;;;;;;;10.21;100.00;101744.47;4987910;28;20054;-66
2024/02/03 06:35:43;;;;;;;1.17;0.13;;;;;;;10.20;100.00;101756.69;4987852;28;20046;-66
2024/02/03 06:38:11;;;;;;;2.08;0.50;;;;;;;10.20;100.00;101753.09;4987132;28;20058;-66
2024/02/03 06:40:38;;;;;;;2.80;0.47;;;;;;;10.18;100.00;101752.59;4987814;28;20046;-66
2024/02/03 06:43:05;;;;;;;0.15;0.10;;;;;;;10.19;100.00;101749.50;4977550;28;20420;-66
2024/02/03 06:45:33;;;;;;;1.95;0.50;;;;;;;10.18;100.00;101749.84;4988177;28;20058;-66
2024/02/03 06:48:00;;;;;;;1.45;0.25;;;;;;;10.18;100.00;101747.06;4988236;28;20155;-66
2024/02/03 06:50:28;;;;;;;2.30;0.30;;;;;;;10.16;100.00;101750.16;4987870;28;20496;-66
2024/02/03 06:52:55;;;;;;;3.22;0.28;;;;;;;10.12;100.00;101749.16;4984420;28;20050;-67
2024/02/03 06:55:23;;;;;;;0.50;0.30;;;;;;;10.11;100.00;101750.25;4977799;28;20520;-66
2024/02/03 06:57:51;;;;;;;2.35;0.32;;;;;;;10.11;100.00;101753.00;4987637;28;20535;-66
2024/02/03 07:00:19;;;;;;;0.70;0.30;;;;;;;10.11;100.00;101764.06;4970259;28;20467;-66
2024/02/03 07:02:47;;;;;;;0.55;0.32;;;;;;;10.09;100.00;101760.81;4984250;28;20059;-66
2024/02/03 07:05:14;;;;;;;0.60;0.40;;;;;;;10.11;100.00;101771.59;4977853;28;20396;-65
2024/02/03 07:07:41;;;;;;;3.38;0.20;;;;;;;10.05;100.00;101761.78;4987069;28;20058;-62
2024/02/03 07:10:09;;;;;;;2.97;0.40;;;;;;;9.98;100.00;101751.16;4979746;28;20061;-66
2024/02/03 07:12:36;;;;;;;2.67;0.40;;;;;;;9.92;100.00;101760.72;4984181;28;20054;-66
2024/02/03 07:15:05;;;;;;;2.13;0.45;;;;;;;9.87;100.00;101768.34;4970112;28;20149;-66
2024/02/03 07:17:33;;;;;;;1.88;0.47;;;;;;;9.80;100.00;101763.25;4974162;28;20042;-65
2024/02/03 07:20:00;;;;;;;2.72;0.73;;;;;;;9.75;100.00;101766.13;4987217;28;20058;-64
2024/02/03 07:22:28;;;;;;;1.70;0.35;;;;;;;9.72;100.00;101764.81;4986899;28;20484;-64
2024/02/03 07:24:55;;;;;;;1.42;0.47;;;;;;;9.71;100.00;101770.66;4986705;28;20402;-64
2024/02/03 07:27:22;;;;;;;1.23;0.30;;;;;;;9.68;100.00;101769.34;4972281;28;20061;-63
2024/02/03 07:29:51;;;;;;;3.05;0.50;;;;;;;9.69;100.00;101772.91;4986721;28;20058;-64
2024/02/03 07:32:18;;;;;;;2.65;1.05;;;;;;;9.67;100.00;101780.72;4986562;28;20049;-64
2024/02/03 07:34:45;;;;;;;1.50;0.93;;;;;;;9.67;100.00;101783.47;4986838;28;20058;-65
2024/02/03 07:37:13;;;;;;;2.92;0.77;;;;;;;9.67;100.00;101769.66;4974261;28;20411;-64
2024/02/03 07:39:40;;;;;;;7.47;0.93;;;;;;;9.65;100.00;101769.97;4986793;28;20062;-64
2024/02/03 07:42:08;;;;;;;1.98;0.40;;;;;;;9.65;100.00;101782.97;4980018;28;20035;-64
2024/02/03 07:44:36;;;;;;;6.43;0.60;;;;;;;9.64;100.00;101778.56;4981219;28;20076;-64
2024/02/03 07:47:04;;;;;;;12.48;1.65;;;;;;;9.64;100.00;101775.81;4987347;28;20062;-64
2024/02/03 07:49:31;;;;;;;4.65;0.65;;;;;;;9.62;100.00;101778.06;4976391;28;20062;-64
2024/02/03 07:51:59;;;;;;;2.85;0.80;;;;;;;9.61;100.00;101780.03;4979186;28;20050;-64
2024/02/03 07:54:29;;;;;;;1.80;0.57;;;;;;;9.62;100.00;101783.59;4982988;28;20054;-64
2024/02/03 07:56:57;;;;;;;2.75;0.40;;;;;;;9.60;100.00;101786.69;4986116;28;20054;-64
2024/02/03 07:59:24;;;;;;;1.23;0.57;;;;;;;9.59;100.00;101795.28;4986613;28;20058;-64
2024/02/03 08:01:51;;;;;;;2.95;0.50;;;;;;;9.58;100.00;101788.13;4986087;28;20062;-64
2024/02/03 08:04:19;;;;;;;0.85;0.30;;;;;;;9.59;100.00;101789.75;4970848;28;20047;-64
2024/02/03 08:06:46;;;;;;;4.55;1.33;;;;;;;9.62;100.00;101794.66;4976439;28;20050;-64
2024/02/03 08:09:14;;;;;;;4.53;0.52;;;;;;;9.62;100.00;101800.19;4982789;28;20061;-64
2024/02/03 08:11:41;;;;;;;4.10;0.77;;;;;;;9.62;100.00;101794.66;4983763;28;20058;-64
2024/02/03 08:14:08;;;;;;;2.08;0.90;;;;;;;9.62;100.00;101805.72;4987399;28;20053;-64
2024/02/03 08:16:36;;;;;;;5.35;0.82;;;;;;;9.58;100.00;101819.34;4976359;28;20050;-64
2024/02/03 08:19:03;;;;;;;8.07;1.27;;;;;;;9.56;100.00;101818.03;4980279;28;20043;-64
2024/02/03 08:21:31;;;;;;;9.38;1.15;;;;;;;9.55;100.00;101813.66;4971921;28;20049;-63
2024/02/03 08:24:00;;;;;;;4.07;0.70;;;;;;;9.54;100.00;101820.28;4987275;28;20505;-64
2024/02/03 08:26:28;;;;;;;8.55;0.95;;;;;;;9.53;100.00;101824.19;4986738;28;20531;-63
2024/02/03 08:28:55;;;;;;;3.28;0.73;;;;;;;9.52;100.00;101828.09;4986611;28;20046;-65
2024/02/03 08:31:22;;;;;;;5.55;0.80;;;;;;;9.51;100.00;101826.44;4978767;28;20058;-64
2024/02/03 08:33:50;;;;;;;8.35;1.60;;;;;;;9.48;100.00;101827.06;4974829;28;20089;-64
2024/02/03 08:36:18;;;;;;;5.32;1.27;;;;;;;9.44;100.00;101828.81;4983931;28;20050;-64
2024/02/03 08:38:45;;;;;;;7.28;0.85;;;;;;;9.43;100.00;101836.28;4985484;28;20053;-64
2024/02/03 08:41:12;;;;;;;4.35;1.00;;;;;;;9.40;100.00;101830.59;4986507;28;20062;-63
2024/02/03 08:43:43;;;;;;;10.00;1.00;;;;;;;9.41;100.00;101837.72;4986113;28;20148;-63
2024/02/03 08:46:10;;;;;;;8.02;1.10;;;;;;;9.39;100.00;101840.81;4981893;28;20061;-63
2024/02/03 08:48:37;;;;;;;12.27;1.77;;;;;;;9.36;100.00;101835.09;4972177;28;20050;-63
2024/02/03 08:51:07;;;;;;;5.07;1.10;;;;;;;9.38;100.00;101835.59;4975496;28;20054;-63
2024/02/03 08:53:34;;;;;;;6.20;1.25;;;;;;;9.37;100.00;101843.06;4967181;28;20050;-63
2024/02/03 08:56:06;;;;;;;5.00;1.48;;;;;;;9.37;100.00;101847.78;4977578;28;20054;-62
2024/02/03 08:58:33;;;;;;;8.40;0.90;;;;;;;9.36;100.00;101848.91;4977517;28;20059;-63
2024/02/03 09:01:00;;;;;;;4.45;0.90;;;;;;;9.38;100.00;101852.16;4977778;28;20039;-62
2024/02/03 09:03:28;;;;;;;4.80;2.08;;;;;;;9.42;100.00;101850.44;4980483;28;20054;-62
2024/02/03 09:05:55;;;;;;;3.70;1.48;;;;;;;9.45;100.00;101849.81;4980274;28;20065;-61
2024/02/03 09:08:23;;;;;;;2.30;0.88;;;;;;;9.43;100.00;101850.09;4973775;28;20770;-64
2024/02/03 09:10:50;;;;;;;8.52;2.50;;;;;;;9.47;100.00;101853.09;4982990;28;20043;-63
2024/02/03 09:13:18;;;;;;;4.32;1.55;;;;;;;9.50;100.00;101856.06;4980961;28;20054;-62
2024/02/03 09:15:45;;;;;;;14.70;1.40;;;;;;;9.49;100.00;101861.88;4988525;28;20050;-62
2024/02/03 09:18:12;;;;;;;3.10;1.25;;;;;;;9.51;100.00;101860.44;4984357;28;20061;-63
2024/02/03 09:20:40;;;;;;;10.88;1.95;;;;;;;9.49;100.00;101867.41;4984127;28;20065;-62
2024/02/03 09:23:07;;;;;;;8.77;1.60;;;;;;;9.45;100.00;101871.94;4979926;28;20058;-63
2024/02/03 09:25:39;;;;;;;13.55;1.75;;;;;;;9.41;100.00;101885.53;4981628;28;20504;-64
2024/02/03 09:28:08;;;;;;;6.22;2.42;;;;;;;9.37;100.00;101892.81;4983083;28;20054;-63
2024/02/03 09:30:35;;;;;;;6.95;1.92;;;;;;;9.34;100.00;101881.56;4979468;28;20054;-64
2024/02/03 09:33:03;;;;;;;9.02;2.10;;;;;;;9.34;100.00;101879.63;4979135;28;20061;-63
2024/02/03 09:35:30;;;;;;;11.55;3.50;;;;;;;9.38;100.00;101882.56;4984914;28;20057;-64
2024/02/03 09:37:57;;;;;;;15.38;4.15;;;;;;;9.39;100.00;101889.75;4979925;28;20775;-64
2024/02/03 09:40:26;;;;;;;8.98;2.45;;;;;;;9.40;100.00;101888.63;4989197;28;20058;-64
2024/02/03 09:42:55;;;;;;;11.07;3.80;;;;;;;9.41;100.00;101893.00;4988437;28;20046;-63
2024/02/03 09:45:22;;;;;;;14.35;3.10;;;;;;;9.43;100.00;101894.34;4981106;28;20061;-62
2024/02/03 09:47:50;;;;;;;16.40;3.10;;;;;;;9.44;100.00;101904.28;4984595;28;20050;-63
2024/02/03 09:50:19;;;;;;;16.25;2.30;;;;;;;9.44;100.00;101897.91;4982798;28;20053;-62
2024/02/03 09:52:49;;;;;;;10.60;2.70;;;;;;;9.48;100.00;101890.63;4976318;28;20042;-62
2024/02/03 09:55:18;;;;;;;11.60;2.08;;;;;;;9.52;100.00;101888.91;4984667;28;20050;-62
2024/02/03 09:57:46;;;;;;;9.10;2.45;;;;;;;9.53;100.00;101887.78;4976625;28;20409;-64
2024/02/03 10:00:16;;;;;;;21.10;3.47;;;;;;;9.55;100.00;101886.34;4983702;28;20501;-63
2024/02/03 10:02:44;;;;;;;14.63;4.07;;;;;;;9.55;100.00;101882.75;4985593;28;20062;-63
2024/02/03 10:05:11;;;;;;;12.57;2.33;;;;;;;9.53;100.00;101891.34;4985109;28;20054;-64
2024/02/03 10:07:39;;;;;;;8.75;2.40;;;;;;;9.50;100.00;101889.22;4976607;28;20415;-65
2024/02/03 10:10:07;;;;;;;7.13;1.88;;;;;;;9.48;100.00;101885.09;4977549;28;20053;-63
2024/02/03 10:12:37;;;;;;;8.90;3.70;;;;;;;9.49;100.00;101892.28;4979311;28;20066;-63
2024/02/03 10:15:06;;;;;;;13.20;3.40;;;;;;;9.46;100.00;101890.97;4981525;28;20061;-63
2024/02/03 10:17:34;;;;;;;15.63;2.42;;;;;;;9.44;100.00;101881.34;4980611;28;20053;-65
2024/02/03 10:20:05;;;;;;;6.35;1.70;;;;;;;9.49;100.00;101884.81;4980332;28;20049;-63
2024/02/03 10:22:36;;;;;;;6.68;2.55;;;;;;;9.55;100.00;101877.22;4977343;28;20066;-64
2024/02/03 10:25:09;;;;;;;9.63;1.98;;;;;;;9.63;100.00;101884.78;4976792;28;20404;-64
2024/02/03 10:27:41;;;;;;;8.45;1.70;;;;;;;9.71;100.00;101890.41;4980919;28;20038;-64
2024/02/03 10:30:09;;;;;;;7.20;2.45;;;;;;;9.82;100.00;101877.16;4988366;28;20057;-63
2024/02/03 10:32:36;;;;;;;9.18;2.55;;;;;;;9.92;100.00;101874.16;4987201;28;20038;-64
2024/02/03 10:35:04;;;;;;;4.95;1.52;;;;;;;10.05;100.00;101876.03;5000556;28;20061;-63
2024/02/03 10:37:32;;;;;;;8.45;1.58;;;;;;;10.10;100.00;101875.91;4988365;28;20062;-63
2024/02/03 10:40:00;;;;;;;11.05;1.60;;;;;;;10.06;100.00;101877.66;4984832;28;20510;-63
2024/02/03 10:42:32;;;;;;;11.50;1.92;;;;;;;10.07;100.00;101876.53;4978256;28;20042;-64
2024/02/03 10:45:02;;;;;;;10.80;2.80;;;;;;;10.08;100.00;101869.88;4987283;28;20050;-64
2024/02/03 10:47:30;;;;;;;9.05;2.03;;;;;;;10.12;100.00;101879.19;4987824;28;20857;-64
2024/02/03 10:49:59;;;;;;;5.90;1.50;;;;;;;10.16;100.00;101871.91;4987843;28;20050;-64
2024/02/03 10:52:29;;;;;;;9.02;1.88;;;;;;;10.19;100.00;101874.03;4987747;28;20053;-64
2024/02/03 10:54:58;;;;;;;4.88;1.42;;;;;;;10.20;100.00;101883.97;4987720;28;20049;-64
2024/02/03 10:57:26;;;;;;;7.07;1.25;;;;;;;10.19;100.00;101887.88;4987411;28;20512;-64
2024/02/03 11:00:04;;;;;;;4.82;1.05;;;;;;;10.20;100.00;101886.75;4975283;28;20065;-64
2024/02/03 11:02:31;;;;;;;10.63;1.95;;;;;;;10.20;100.00;101883.97;4987148;28;20062;-64
2024/02/03 11:05:00;;;;;;;6.00;1.38;;;;;;;10.17;100.00;101892.91;4987542;28;20058;-64
2024/02/03 11:07:30;;;;;;;10.93;2.22;;;;;;;10.17;100.00;101898.44;4986013;28;20054;-64
2024/02/03 11:10:03;;;;;;;12.40;1.45;;;;;;;10.20;100.00;101889.50;4976799;28;20053;-64
2024/02/03 11:12:34;;;;;;;10.38;2.35;;;;;;;10.21;100.00;101902.22;4984402;28;20054;-64
2024/02/03 11:15:14;;;;;;;9.40;2.22;;;;;;;10.10;100.00;101903.56;4987006;28;20042;-64
2024/02/03 11:17:43;;;;;;;9.70;1.88;;;;;;;10.06;100.00;101916.38;4992717;28;20043;-65
2024/02/03 11:20:20;;;;;;;8.05;2.38;;;;;;;10.02;100.00;101912.63;4974475;28;20043;-64
2024/02/03 11:22:55;;;;;;;5.78;1.60;;;;;;;9.99;100.00;101915.19;4982400;28;20054;-63